Time;durP1;ratioP1;P1;durP2;ratioP2;P2;SDS_P1;SDS_P2;PMS_P1;PMS_P2;Temp;Humidity;BMP_temperature;BMP_pressure;BME280_temperature;BME280_humidity;BME280_pressure;Samples;Min_cycle;Max_cycle;Signal;HPM_P1;HPM_P2
2022/03/19 00:00:31;;;;;;;22.25;3.95;;;4.50;99.90;;;;;;5035781;28;20132;-83
2022/03/19 00:02:57;;;;;;;19.40;3.60;;;4.90;99.90;;;;;;5053151;28;20052;-83
2022/03/19 00:05:23;;;;;;;9.82;3.50;;;4.30;99.90;;;;;;5052323;28;20504;-83
2022/03/19 00:07:50;;;;;;;16.88;3.45;;;4.30;99.90;;;;;;5052043;28;20041;-83
2022/03/19 00:10:16;;;;;;;21.33;5.78;;;4.30;99.90;;;;;;5053473;28;20111;-83
2022/03/19 00:12:42;;;;;;;15.98;4.07;;;4.20;99.90;;;;;;5035457;28;20052;-82
2022/03/19 00:15:09;;;;;;;17.58;4.43;;;4.00;99.90;;;;;;5053058;28;20052;-84
2022/03/19 00:17:34;;;;;;;18.10;4.75;;;3.90;99.90;;;;;;5051729;28;20053;-84
2022/03/19 00:20:00;;;;;;;15.60;4.60;;;5.20;99.90;;;;;;5053023;28;20171;-83
2022/03/19 00:22:26;;;;;;;14.15;4.60;;;4.60;99.90;;;;;;5034029;28;20053;-82
2022/03/19 00:24:52;;;;;;;15.23;4.20;;;3.80;99.90;;;;;;5034918;28;20051;-82
2022/03/19 00:27:17;;;;;;;20.42;4.60;;;5.10;99.90;;;;;;5051861;28;20048;-82
2022/03/19 00:29:43;;;;;;;18.88;5.28;;;3.70;99.90;;;;;;5051284;28;20049;-83
2022/03/19 00:32:08;;;;;;;24.58;5.40;;;5.00;99.90;;;;;;5051463;28;20095;-83
2022/03/19 00:34:34;;;;;;;25.77;5.40;;;3.70;99.90;;;;;;5051345;28;20053;-83
2022/03/19 00:37:01;;;;;;;20.98;4.93;;;4.70;99.90;;;;;;5034912;28;20045;-83
2022/03/19 00:39:27;;;;;;;22.80;5.25;;;3.70;99.90;;;;;;5034928;28;20045;-83
2022/03/19 00:41:52;;;;;;;24.40;4.93;;;3.80;99.90;;;;;;5051443;28;20507;-83
2022/03/19 00:44:22;;;;;;;16.45;4.90;;;4.50;99.90;;;;;;5051655;28;20083;-83
2022/03/19 00:46:48;;;;;;;16.30;5.03;;;3.80;99.90;;;;;;5034619;28;20076;-83
2022/03/19 00:49:14;;;;;;;18.73;4.93;;;3.90;99.90;;;;;;5021541;28;20069;-84
2022/03/19 00:51:40;;;;;;;15.35;4.38;;;5.00;99.90;;;;;;5038180;28;20056;-82
2022/03/19 00:54:07;;;;;;;19.95;4.90;;;4.40;99.90;;;;;;5023089;28;20128;-83
2022/03/19 00:56:33;;;;;;;20.42;4.45;;;5.40;99.90;;;;;;4998937;28;20063;-82
2022/03/19 00:58:59;;;;;;;17.67;4.20;;;3.70;99.90;;;;;;5015650;28;20041;-86
2022/03/19 01:01:24;;;;;;;19.33;4.30;;;4.00;99.90;;;;;;5015747;28;20128;-83
2022/03/19 01:03:50;;;;;;;22.00;4.55;;;3.70;99.90;;;;;;5031793;28;20097;-83
2022/03/19 01:06:16;;;;;;;17.90;4.15;;;3.70;99.90;;;;;;5032468;28;20054;-84
2022/03/19 01:08:41;;;;;;;20.65;4.25;;;3.60;99.90;;;;;;5040956;28;20049;-85
2022/03/19 01:11:07;;;;;;;18.73;4.30;;;3.50;99.90;;;;;;5031337;28;20049;-85
2022/03/19 01:13:32;;;;;;;22.27;6.20;;;5.00;99.90;;;;;;5047794;28;20120;-84
2022/03/19 01:15:58;;;;;;;17.23;3.67;;;3.90;99.90;;;;;;5051023;28;20115;-85
2022/03/19 01:18:24;;;;;;;16.30;4.05;;;3.60;99.90;;;;;;5031324;28;20032;-86
2022/03/19 01:20:50;;;;;;;15.00;4.20;;;4.20;99.90;;;;;;5032949;28;20048;-85
2022/03/19 01:23:15;;;;;;;21.17;4.70;;;3.40;99.90;;;;;;5050513;28;20056;-85
2022/03/19 01:25:41;;;;;;;20.15;4.07;;;3.40;99.90;;;;;;5051808;28;20090;-86
2022/03/19 01:28:07;;;;;;;18.38;3.97;;;4.20;99.90;;;;;;5036532;28;20056;-85
2022/03/19 01:30:33;;;;;;;17.17;4.28;;;4.30;99.90;;;;;;5049344;28;20044;-85
2022/03/19 01:32:58;;;;;;;20.75;5.47;;;3.20;99.90;;;;;;5043603;28;20049;-85
2022/03/19 01:35:24;;;;;;;19.00;4.57;;;3.20;99.90;;;;;;5035216;28;20044;-86
2022/03/19 01:37:50;;;;;;;20.90;4.57;;;3.10;99.90;;;;;;5034524;28;20427;-84
2022/03/19 01:40:17;;;;;;;16.42;4.43;;;3.10;99.90;;;;;;5034181;28;20084;-84
2022/03/19 01:42:45;;;;;;;14.40;4.32;;;3.90;99.90;;;;;;5050952;28;20060;-85
2022/03/19 01:45:22;;;;;;;15.43;4.20;;;3.10;99.90;;;;;;5051224;28;20396;-85
2022/03/19 01:47:48;;;;;;;17.52;4.28;;;3.20;99.90;;;;;;5034111;28;20056;-85
2022/03/19 01:50:14;;;;;;;16.92;4.32;;;3.20;99.90;;;;;;5034806;28;20118;-85
2022/03/19 01:52:40;;;;;;;19.75;4.43;;;3.30;99.90;;;;;;5017428;28;20080;-85
2022/03/19 01:55:07;;;;;;;15.75;4.60;;;3.20;99.90;;;;;;5034733;28;20045;-85
2022/03/19 01:57:37;;;;;;;16.48;4.32;;;3.20;99.90;;;;;;5017366;28;20408;-84
2022/03/19 02:00:03;;;;;;;27.55;6.63;;;3.50;99.90;;;;;;5034416;28;20052;-84
2022/03/19 02:02:29;;;;;;;16.42;4.65;;;3.20;99.90;;;;;;5050984;28;20088;-84
2022/03/19 02:04:55;;;;;;;29.38;6.63;;;3.30;99.90;;;;;;5033396;28;20551;-84
2022/03/19 02:07:20;;;;;;;19.48;4.70;;;3.50;99.90;;;;;;5050571;28;20100;-85
2022/03/19 02:09:46;;;;;;;16.25;4.50;;;3.30;99.90;;;;;;5033883;28;20049;-84
2022/03/19 02:12:12;;;;;;;21.23;5.18;;;4.00;99.90;;;;;;5050884;28;20048;-83
2022/03/19 02:14:39;;;;;;;19.23;4.95;;;4.40;99.90;;;;;;5050173;28;20045;-82
2022/03/19 02:17:05;;;;;;;18.77;4.80;;;3.30;99.90;;;;;;5033591;28;20095;-82
2022/03/19 02:19:31;;;;;;;19.40;4.95;;;3.30;99.90;;;;;;5050705;28;20481;-82
2022/03/19 02:21:57;;;;;;;18.30;5.28;;;3.30;99.90;;;;;;5050017;28;20063;-84
2022/03/19 02:27:07;;;;;;;23.80;5.82;;;3.20;99.90;;;;;;5036267;28;20370;-82
2022/03/19 02:29:35;;;;;;;20.25;5.18;;;3.60;99.90;;;;;;5050616;28;20397;-83
2022/03/19 02:32:03;;;;;;;18.35;5.22;;;3.10;99.90;;;;;;5051499;28;20064;-83
2022/03/19 02:34:29;;;;;;;17.95;4.68;;;3.10;99.90;;;;;;5034181;28;20071;-83
2022/03/19 02:36:55;;;;;;;19.17;4.63;;;3.00;99.90;;;;;;5051252;28;20048;-83
2022/03/19 02:39:28;;;;;;;16.65;4.88;;;3.00;99.90;;;;;;5050006;28;20106;-82
2022/03/19 02:41:54;;;;;;;20.02;4.95;;;3.00;99.90;;;;;;5034342;28;20060;-83
2022/03/19 02:44:20;;;;;;;18.27;4.22;;;3.00;99.90;;;;;;5036042;28;20124;-82
2022/03/19 02:46:51;;;;;;;25.88;5.93;;;2.90;99.90;;;;;;5071069;28;20053;-83
2022/03/19 02:49:17;;;;;;;24.92;5.82;;;2.80;99.90;;;;;;5041464;28;20401;-82
2022/03/19 02:51:44;;;;;;;23.05;5.50;;;3.70;99.90;;;;;;5054442;28;20059;-82
2022/03/19 02:54:11;;;;;;;21.35;5.57;;;2.80;99.90;;;;;;5054176;28;20060;-83
2022/03/19 02:56:38;;;;;;;25.48;5.35;;;2.90;99.90;;;;;;5054026;28;20056;-83
2022/03/19 02:59:17;;;;;;;24.65;6.32;;;3.10;99.90;;;;;;5037412;28;20059;-83
2022/03/19 03:01:44;;;;;;;14.65;5.03;;;2.60;99.90;;;;;;5037229;28;20469;-83
2022/03/19 03:04:09;;;;;;;22.77;5.68;;;2.80;99.90;;;;;;5037609;28;20053;-83
2022/03/19 03:06:39;;;;;;;23.42;6.32;;;2.50;99.90;;;;;;5053725;28;20044;-83
2022/03/19 03:09:05;;;;;;;19.13;5.55;;;2.40;99.90;;;;;;5053846;28;20049;-83
2022/03/19 03:11:31;;;;;;;18.45;4.75;;;2.40;99.90;;;;;;5037359;28;20067;-83
2022/03/19 03:13:57;;;;;;;20.67;5.68;;;2.90;99.90;;;;;;5036734;28;20052;-83
2022/03/19 03:16:24;;;;;;;16.63;6.00;;;3.60;99.90;;;;;;5037259;28;20432;-82
2022/03/19 03:18:49;;;;;;;19.45;5.65;;;2.20;99.90;;;;;;5052927;28;20040;-83
2022/03/19 03:21:15;;;;;;;26.17;6.43;;;2.10;99.90;;;;;;5053447;28;20094;-82
2022/03/19 03:23:40;;;;;;;29.33;6.40;;;2.10;99.90;;;;;;5055300;28;20063;-83
2022/03/19 03:26:06;;;;;;;21.50;6.53;;;3.00;99.90;;;;;;5059532;28;20056;-84
2022/03/19 03:28:32;;;;;;;20.02;6.03;;;2.20;99.90;;;;;;5039528;28;20064;-82
2022/03/19 03:30:58;;;;;;;20.70;5.80;;;3.10;99.90;;;;;;5036387;28;20497;-82
2022/03/19 03:33:23;;;;;;;18.25;6.20;;;2.00;99.90;;;;;;5036882;28;20059;-83
2022/03/19 03:35:49;;;;;;;19.27;6.07;;;3.20;99.90;;;;;;5052891;28;20045;-83
2022/03/19 03:38:15;;;;;;;24.48;6.43;;;2.40;99.90;;;;;;5036577;28;20118;-84
2022/03/19 03:40:43;;;;;;;20.00;6.30;;;2.60;99.90;;;;;;5036125;28;20091;-82
2022/03/19 03:43:09;;;;;;;25.65;7.10;;;2.00;99.90;;;;;;5054033;28;20497;-83
2022/03/19 03:45:35;;;;;;;30.45;7.13;;;1.90;99.90;;;;;;5054184;28;20047;-83
2022/03/19 03:48:01;;;;;;;24.40;7.38;;;2.00;99.90;;;;;;5035894;28;20466;-83
2022/03/19 03:50:27;;;;;;;22.85;7.20;;;2.00;99.90;;;;;;5052848;28;20083;-82
2022/03/19 03:52:52;;;;;;;28.38;7.00;;;2.40;99.90;;;;;;5019860;28;20092;-83
2022/03/19 03:55:18;;;;;;;20.30;7.10;;;2.00;99.90;;;;;;5036017;28;20140;-84
2022/03/19 03:57:44;;;;;;;24.42;7.93;;;3.10;99.90;;;;;;5036036;28;20052;-83
2022/03/19 04:00:10;;;;;;;26.92;8.20;;;2.00;99.90;;;;;;5051147;28;20052;-83
2022/03/19 04:02:36;;;;;;;21.83;7.55;;;2.00;99.90;;;;;;5046787;28;20077;-83
2022/03/19 04:05:03;;;;;;;30.30;8.30;;;3.40;99.90;;;;;;5014070;28;20049;-83
2022/03/19 04:07:32;;;;;;;18.00;7.30;;;2.00;99.90;;;;;;5049621;28;20043;-83
2022/03/19 04:09:57;;;;;;;19.40;7.10;;;2.00;99.90;;;;;;5031856;28;20037;-84
2022/03/19 04:12:23;;;;;;;24.38;7.95;;;3.00;99.90;;;;;;5051737;28;20503;-83
2022/03/19 04:14:52;;;;;;;33.33;8.70;;;2.10;99.90;;;;;;5035124;28;20103;-83
2022/03/19 04:17:18;;;;;;;30.55;7.95;;;2.10;99.90;;;;;;5035261;28;20059;-83
2022/03/19 04:19:44;;;;;;;27.23;8.95;;;3.30;99.90;;;;;;5037812;28;20440;-83
2022/03/19 04:22:10;;;;;;;30.65;8.95;;;2.10;99.90;;;;;;5032805;28;20087;-82
2022/03/19 04:24:36;;;;;;;29.70;8.90;;;3.10;99.90;;;;;;5035969;28;20083;-82
2022/03/19 04:27:02;;;;;;;20.42;8.15;;;2.20;99.90;;;;;;5035491;28;20037;-83
2022/03/19 04:29:28;;;;;;;28.45;9.88;;;2.30;99.90;;;;;;5053670;28;20044;-83
2022/03/19 04:31:54;;;;;;;25.13;9.80;;;2.30;99.90;;;;;;5051008;28;20583;-82
2022/03/19 04:34:19;;;;;;;25.58;9.00;;;3.00;99.90;;;;;;5034732;28;20122;-83
2022/03/19 04:36:45;;;;;;;31.30;9.23;;;2.80;99.90;;;;;;5051188;28;20132;-83
2022/03/19 04:39:11;;;;;;;28.90;9.18;;;2.20;99.90;;;;;;5051374;28;20056;-84
2022/03/19 04:41:37;;;;;;;23.35;9.45;;;2.20;99.90;;;;;;5051512;28;20053;-84
2022/03/19 04:44:04;;;;;;;25.40;8.93;;;2.10;99.90;;;;;;5037455;28;20132;-83
2022/03/19 04:46:30;;;;;;;25.63;9.27;;;2.10;99.90;;;;;;5057656;28;20447;-83
2022/03/19 04:48:56;;;;;;;25.30;9.80;;;2.10;99.90;;;;;;5075445;28;20055;-82
2022/03/19 04:51:32;;;;;;;24.85;9.57;;;2.00;99.90;;;;;;5057032;28;20045;-84
2022/03/19 04:53:57;;;;;;;26.80;9.45;;;2.10;99.90;;;;;;5058099;28;20041;-83
2022/03/19 04:56:24;;;;;;;22.60;8.52;;;3.30;99.90;;;;;;5048181;28;20053;-83
2022/03/19 04:58:54;;;;;;;23.70;9.30;;;2.20;99.90;;;;;;5037549;28;20076;-84
2022/03/19 05:01:21;;;;;;;23.63;8.77;;;2.10;99.90;;;;;;5036890;28;20057;-83
2022/03/19 05:03:46;;;;;;;29.75;10.13;;;2.90;99.90;;;;;;5023361;28;20064;-83
2022/03/19 05:06:12;;;;;;;31.60;10.38;;;2.40;99.90;;;;;;5061839;28;20060;-84
2022/03/19 05:08:38;;;;;;;28.95;10.00;;;2.10;99.90;;;;;;5027295;28;20085;-84
2022/03/19 05:11:13;;;;;;;30.80;9.32;;;2.20;99.90;;;;;;5036457;28;20045;-85
2022/03/19 05:13:43;;;;;;;23.15;9.73;;;2.20;99.90;;;;;;5038192;28;20504;-84
2022/03/19 05:16:09;;;;;;;28.05;9.30;;;2.20;99.90;;;;;;5052615;28;20411;-84
2022/03/19 05:18:35;;;;;;;28.70;9.90;;;2.20;99.90;;;;;;5051719;28;20051;-85
2022/03/19 05:21:01;;;;;;;18.25;9.48;;;2.30;99.90;;;;;;5035073;28;20053;-84
2022/03/19 05:23:26;;;;;;;27.60;10.05;;;2.20;99.90;;;;;;5035028;28;20052;-84
2022/03/19 05:25:52;;;;;;;29.85;10.15;;;2.20;99.90;;;;;;5034850;28;20057;-84
2022/03/19 05:28:18;;;;;;;28.73;9.85;;;2.20;99.90;;;;;;5051356;28;20037;-84
2022/03/19 05:30:45;;;;;;;27.50;10.32;;;2.20;99.90;;;;;;5051479;28;20049;-85
2022/03/19 05:33:11;;;;;;;26.45;10.63;;;2.20;99.90;;;;;;5034460;28;20048;-85
2022/03/19 05:35:37;;;;;;;32.38;10.40;;;2.10;99.90;;;;;;5051642;28;20045;-85
2022/03/19 05:38:04;;;;;;;30.08;10.23;;;2.20;99.90;;;;;;5051103;28;20049;-84
2022/03/19 05:40:30;;;;;;;30.10;11.95;;;2.00;99.90;;;;;;5051414;28;20052;-85
2022/03/19 05:42:56;;;;;;;24.58;9.88;;;2.00;99.90;;;;;;5018295;28;20059;-85
2022/03/19 05:45:22;;;;;;;29.10;10.65;;;2.00;99.90;;;;;;5034627;28;20482;-85
2022/03/19 05:47:48;;;;;;;28.73;10.75;;;2.00;99.90;;;;;;5051093;28;20493;-85
2022/03/19 05:50:14;;;;;;;31.77;11.68;;;2.50;99.90;;;;;;5033731;28;20439;-85
2022/03/19 05:52:40;;;;;;;26.33;11.07;;;2.10;99.90;;;;;;5018231;28;20053;-85
2022/03/19 05:55:07;;;;;;;21.90;10.30;;;2.30;99.90;;;;;;5050722;28;20056;-85
2022/03/19 05:57:32;;;;;;;26.33;11.15;;;2.50;99.90;;;;;;5053078;28;20076;-85
2022/03/19 05:59:58;;;;;;;26.95;8.95;;;3.70;99.90;;;;;;5045087;28;20052;-85
2022/03/19 06:02:24;;;;;;;29.67;9.85;;;2.90;99.90;;;;;;5059666;28;20056;-86
2022/03/19 06:04:51;;;;;;;23.67;8.73;;;4.30;99.90;;;;;;5034454;28;20053;-84
2022/03/19 06:07:16;;;;;;;26.00;9.32;;;3.40;99.90;;;;;;5033799;28;20064;-85
2022/03/19 06:09:42;;;;;;;18.88;6.85;;;3.40;99.90;;;;;;5050824;28;20049;-85
2022/03/19 06:12:08;;;;;;;11.77;5.40;;;3.70;99.90;;;;;;5051234;28;20088;-85
2022/03/19 06:14:34;;;;;;;20.90;7.35;;;3.30;99.90;;;;;;5034040;28;20053;-84
2022/03/19 06:16:59;;;;;;;23.75;8.70;;;3.20;99.90;;;;;;5034257;28;20037;-85
2022/03/19 06:19:25;;;;;;;23.40;8.30;;;3.40;99.90;;;;;;5049971;28;20045;-84
2022/03/19 06:21:51;;;;;;;18.35;7.15;;;3.70;99.90;;;;;;5037027;28;20068;-85
2022/03/19 06:24:17;;;;;;;24.58;8.52;;;3.30;99.90;;;;;;5055092;28;20379;-84
2022/03/19 06:26:43;;;;;;;18.88;8.68;;;3.60;99.90;;;;;;5037868;28;20516;-85
2022/03/19 06:29:09;;;;;;;19.58;8.18;;;4.30;99.90;;;;;;5054116;28;20073;-84
2022/03/19 06:31:34;;;;;;;18.38;8.02;;;4.40;99.90;;;;;;5056138;28;20053;-84
2022/03/19 06:34:00;;;;;;;20.17;7.45;;;4.80;99.90;;;;;;5038615;28;20052;-84
2022/03/19 06:39:11;;;;;;;16.08;7.30;;;6.30;99.90;;;;;;5046378;28;20045;-83
2022/03/19 06:41:36;;;;;;;17.20;8.52;;;6.70;99.90;;;;;;5055486;28;20504;-83
2022/03/19 06:44:02;;;;;;;18.92;7.18;;;7.20;99.90;;;;;;5044258;28;20064;-83
2022/03/19 06:46:28;;;;;;;20.15;7.63;;;7.30;99.90;;;;;;5054498;28;20370;-84
2022/03/19 06:48:55;;;;;;;17.70;7.22;;;7.80;99.90;;;;;;5054037;28;20051;-84
2022/03/19 06:51:21;;;;;;;16.65;7.25;;;8.10;99.90;;;;;;5054003;28;20068;-84
2022/03/19 06:53:47;;;;;;;21.20;6.63;;;8.60;99.90;;;;;;5037995;28;20461;-83
2022/03/19 06:56:15;;;;;;;15.85;6.68;;;8.80;99.90;;;;;;5036868;28;20061;-83
2022/03/19 06:58:41;;;;;;;17.52;7.25;;;9.00;99.90;;;;;;5053891;28;20132;-83
2022/03/19 07:01:09;;;;;;;18.52;6.88;;;9.00;99.90;;;;;;5053230;28;20584;-83
2022/03/19 07:03:35;;;;;;;15.95;6.38;;;9.20;99.90;;;;;;5054491;28;20392;-83
2022/03/19 07:06:01;;;;;;;16.67;6.90;;;9.80;99.90;;;;;;5037874;28;20061;-84
2022/03/19 07:08:27;;;;;;;21.25;6.60;;;9.80;99.90;;;;;;5053243;28;20798;-84
2022/03/19 07:10:52;;;;;;;13.48;6.68;;;10.10;99.90;;;;;;5054312;28;20546;-83
2022/03/19 07:13:18;;;;;;;21.35;8.07;;;10.10;99.90;;;;;;5036980;28;20477;-84
2022/03/19 07:15:44;;;;;;;16.98;6.90;;;10.00;99.90;;;;;;5020962;28;20504;-83
2022/03/19 07:18:10;;;;;;;17.67;7.20;;;9.60;99.90;;;;;;5053145;28;20124;-83
2022/03/19 07:20:36;;;;;;;18.63;7.03;;;10.30;99.90;;;;;;5057699;28;20477;-84
2022/03/19 07:23:01;;;;;;;14.68;6.28;;;10.50;99.90;;;;;;5059105;28;20138;-82
2022/03/19 07:25:32;;;;;;;18.63;6.95;;;11.00;99.90;;;;;;5052823;28;20359;-83
2022/03/19 07:28:00;;;;;;;16.58;7.53;;;11.30;99.90;;;;;;5054494;28;20088;-83
2022/03/19 07:30:29;;;;;;;12.75;6.13;;;11.30;99.90;;;;;;5055238;28;20052;-83
2022/03/19 07:32:55;;;;;;;17.90;6.22;;;11.00;99.90;;;;;;5052637;28;20045;-83
2022/03/19 07:35:21;;;;;;;19.65;7.22;;;10.80;99.90;;;;;;5020545;28;20060;-82
2022/03/19 07:37:50;;;;;;;18.02;6.57;;;10.80;99.90;;;;;;5053611;28;20072;-83
2022/03/19 07:41:45;;;;;;;14.10;5.47;;;11.00;99.90;;;;;;5036562;28;20152;-84
2022/03/19 07:43:06;;;;;;;16.25;5.97;;;11.00;99.90;;;;;;5039736;28;20053;-82
2022/03/19 07:45:31;;;;;;;16.45;5.82;;;11.10;99.90;;;;;;5053310;28;20075;-83
2022/03/19 07:47:57;;;;;;;16.15;6.70;;;11.00;99.90;;;;;;5054071;28;20044;-82
2022/03/19 07:50:23;;;;;;;14.73;6.72;;;11.00;99.90;;;;;;5052591;28;20068;-83
2022/03/19 07:52:48;;;;;;;14.27;5.88;;;11.80;99.90;;;;;;5057601;28;20514;-82
2022/03/19 07:55:14;;;;;;;17.48;6.90;;;11.60;99.90;;;;;;5036870;28;20056;-83
2022/03/19 07:57:40;;;;;;;18.33;5.22;;;11.60;99.90;;;;;;5021326;28;20049;-83
2022/03/19 08:00:07;;;;;;;16.20;5.85;;;11.80;99.90;;;;;;5021473;28;20045;-83
2022/03/19 08:02:32;;;;;;;14.18;5.43;;;12.40;99.90;;;;;;5056512;28;20053;-83
2022/03/19 08:05:00;;;;;;;22.13;7.78;;;12.00;99.90;;;;;;5071756;28;20041;-83
2022/03/19 08:07:25;;;;;;;15.77;5.05;;;12.20;99.90;;;;;;5073929;28;20073;-83
2022/03/19 08:09:51;;;;;;;14.15;5.05;;;12.20;99.90;;;;;;5070855;28;20040;-82
2022/03/19 08:12:17;;;;;;;10.98;5.00;;;12.30;99.90;;;;;;5041290;28;20049;-83
2022/03/19 08:14:42;;;;;;;16.52;5.55;;;12.40;99.90;;;;;;5029359;28;20064;-83
2022/03/19 08:17:08;;;;;;;11.77;4.72;;;12.80;99.90;;;;;;5037982;28;20094;-83
2022/03/19 08:19:34;;;;;;;11.40;4.63;;;13.50;99.90;;;;;;5055509;28;20076;-83
2022/03/19 08:22:00;;;;;;;11.60;4.60;;;13.00;99.90;;;;;;5020598;28;20055;-84
2022/03/19 08:24:28;;;;;;;14.43;4.25;;;13.20;99.90;;;;;;5036094;28;20084;-84
2022/03/19 08:26:54;;;;;;;16.02;4.95;;;13.40;99.90;;;;;;5052204;28;20524;-84
2022/03/19 08:29:24;;;;;;;14.60;4.68;;;12.80;99.90;;;;;;5052090;28;20041;-83
2022/03/19 08:31:53;;;;;;;19.80;4.47;;;12.90;99.90;;;;;;5020223;28;20056;-84
2022/03/19 08:34:20;;;;;;;11.68;3.67;;;13.30;99.90;;;;;;5052385;28;20060;-84
2022/03/19 08:36:45;;;;;;;13.75;4.95;;;13.90;99.90;;;;;;5036540;28;20186;-84
2022/03/19 08:41:58;;;;;;;12.38;3.92;;;13.70;99.90;;;;;;5036540;28;20094;-83
2022/03/19 08:44:24;;;;;;;13.88;4.25;;;13.20;99.90;;;;;;5059197;28;20076;-86
2022/03/19 08:46:49;;;;;;;13.25;4.47;;;13.60;99.90;;;;;;5060254;28;20087;-83
2022/03/19 08:49:15;;;;;;;13.52;4.50;;;13.90;99.90;;;;;;5036146;28;20456;-84
2022/03/19 08:51:42;;;;;;;12.20;4.32;;;13.70;99.90;;;;;;5035281;28;20041;-84
2022/03/19 08:54:16;;;;;;;8.88;3.95;;;14.30;99.90;;;;;;5048751;28;20586;-84
2022/03/19 08:56:43;;;;;;;11.77;4.53;;;13.80;99.90;;;;;;5045038;28;20048;-82
2022/03/19 08:59:09;;;;;;;14.15;4.03;;;13.40;99.90;;;;;;5050794;28;20045;-83
2022/03/19 09:01:35;;;;;;;10.25;3.17;;;13.80;99.90;;;;;;5046281;28;20045;-84
2022/03/19 09:04:01;;;;;;;13.73;4.15;;;14.10;99.90;;;;;;5039681;28;20049;-83
2022/03/19 09:06:27;;;;;;;14.80;4.05;;;14.20;99.90;;;;;;5032372;28;20120;-84
2022/03/19 09:08:53;;;;;;;12.93;3.67;;;14.10;99.90;;;;;;5048876;28;20485;-83
2022/03/19 09:11:19;;;;;;;13.45;4.00;;;13.60;99.90;;;;;;5051605;28;20052;-83
2022/03/19 09:13:48;;;;;;;13.68;4.40;;;14.00;99.90;;;;;;5046072;28;20057;-84
2022/03/19 09:16:14;;;;;;;11.65;3.55;;;14.10;99.90;;;;;;5027033;28;20049;-84
2022/03/19 09:18:46;;;;;;;16.20;4.00;;;14.80;99.90;;;;;;5050453;28;20099;-84
2022/03/19 09:21:12;;;;;;;13.82;4.00;;;14.70;99.90;;;;;;5032080;28;20052;-82
2022/03/19 09:23:38;;;;;;;13.88;3.72;;;14.60;99.90;;;;;;5034390;28;20555;-83
2022/03/19 09:26:04;;;;;;;10.73;3.30;;;14.10;99.90;;;;;;5033980;28;20049;-83
2022/03/19 09:28:29;;;;;;;10.73;3.90;;;13.80;99.90;;;;;;5029894;28;20041;-83
2022/03/19 09:30:55;;;;;;;12.27;3.20;;;13.70;99.90;;;;;;5032895;28;20087;-83
2022/03/19 09:33:21;;;;;;;9.75;2.88;;;14.30;99.90;;;;;;5032828;28;20056;-85
2022/03/19 09:35:47;;;;;;;14.52;3.92;;;13.80;99.90;;;;;;5031131;28;20052;-83
2022/03/19 09:38:19;;;;;;;14.48;3.90;;;13.70;99.90;;;;;;5029307;28;20049;-84
2022/03/19 09:40:45;;;;;;;8.68;3.13;;;13.30;99.90;;;;;;5046480;28;20044;-83
2022/03/19 09:43:11;;;;;;;16.65;3.60;;;13.90;99.90;;;;;;5052261;28;20131;-84
2022/03/19 09:45:38;;;;;;;7.70;3.47;;;14.00;99.90;;;;;;5046750;28;20080;-83
2022/03/19 09:48:04;;;;;;;9.95;3.25;;;13.90;99.90;;;;;;5037820;28;20489;-83
2022/03/19 09:50:30;;;;;;;9.65;3.15;;;13.40;99.10;;;;;;5021503;28;20040;-83
2022/03/19 09:52:57;;;;;;;14.00;3.42;;;13.70;99.90;;;;;;5040627;28;20470;-83
2022/03/19 09:55:26;;;;;;;8.35;3.08;;;13.50;99.90;;;;;;5029620;28;20054;-84
2022/03/19 09:57:52;;;;;;;7.25;3.22;;;13.40;99.90;;;;;;5029930;28;20074;-84
2022/03/19 10:00:19;;;;;;;9.27;2.58;;;13.00;99.90;;;;;;5012391;28;20076;-83
2022/03/19 10:02:57;;;;;;;13.18;3.63;;;13.70;99.90;;;;;;5050611;28;20041;-84
2022/03/19 10:10:53;;;;;;;;;;;14.50;99.90;;;;;;5016267;28;20397;-84
2022/03/19 10:13:19;;;;;;;11.93;2.83;;;13.80;98.30;;;;;;5013755;28;20006;-83
2022/03/19 10:15:44;;;;;;;7.03;2.80;;;14.40;98.10;;;;;;5029777;28;20073;-85
2022/03/19 10:18:10;;;;;;;8.55;2.70;;;14.40;95.70;;;;;;5036588;28;20053;-84
2022/03/19 10:20:37;;;;;;;8.73;2.70;;;13.90;98.20;;;;;;5006950;28;20146;-86
2022/03/19 10:23:03;;;;;;;8.85;2.70;;;13.90;95.90;;;;;;4998563;28;20391;-84
2022/03/19 10:25:28;;;;;;;10.18;3.13;;;13.70;97.20;;;;;;5036435;28;20048;-84
2022/03/19 10:28:03;;;;;;;14.02;3.97;;;13.80;99.90;;;;;;5026107;28;20048;-87
2022/03/19 10:30:36;;;;;;;11.68;3.25;;;13.90;99.90;;;;;;5041036;28;20059;-85
2022/03/19 10:33:02;;;;;;;6.43;2.05;;;13.70;99.90;;;;;;5040979;28;20125;-85
2022/03/19 10:35:35;;;;;;;10.73;3.17;;;13.50;99.40;;;;;;5049353;28;20073;-85
2022/03/19 10:38:15;;;;;;;4.95;1.98;;;13.00;99.00;;;;;;5033565;28;20496;-85
2022/03/19 10:40:43;;;;;;;8.15;2.85;;;13.20;96.50;;;;;;5032577;28;20041;-86
2022/03/19 10:43:09;;;;;;;6.78;2.20;;;12.90;98.20;;;;;;5019077;28;20451;-86
2022/03/19 10:45:42;;;;;;;9.45;2.80;;;12.60;98.00;;;;;;5034507;28;20049;-85
2022/03/19 10:48:09;;;;;;;7.68;2.33;;;12.40;98.10;;;;;;5036026;28;20053;-84
2022/03/19 10:50:35;;;;;;;10.32;3.67;;;12.80;98.70;;;;;;5035694;28;20072;-85
2022/03/19 10:53:00;;;;;;;5.93;2.75;;;12.70;99.90;;;;;;5019577;28;20091;-85
2022/03/19 10:55:26;;;;;;;10.57;2.35;;;13.10;99.40;;;;;;5051802;28;20084;-86
2022/03/19 10:57:53;;;;;;;6.72;2.38;;;13.10;97.50;;;;;;5051888;28;20056;-85
2022/03/19 11:00:19;;;;;;;9.60;3.25;;;13.40;98.00;;;;;;5052824;28;20049;-84
2022/03/19 11:02:47;;;;;;;7.10;3.08;;;13.70;97.50;;;;;;5051757;28;20049;-83
2022/03/19 11:05:19;;;;;;;7.43;2.65;;;13.30;99.40;;;;;;5037533;28;20060;-85
2022/03/19 11:07:45;;;;;;;9.05;2.50;;;13.40;98.10;;;;;;5018946;28;20045;-84
2022/03/19 11:10:13;;;;;;;8.00;2.60;;;13.50;98.10;;;;;;5052836;28;20060;-84
2022/03/19 11:12:42;;;;;;;7.72;3.00;;;13.60;97.70;;;;;;5035863;28;20105;-85
2022/03/19 11:15:09;;;;;;;3.83;1.63;;;13.00;98.90;;;;;;5035296;28;20052;-86
2022/03/19 11:17:37;;;;;;;4.45;1.98;;;12.90;99.00;;;;;;5033892;28;20482;-86
2022/03/19 11:20:08;;;;;;;8.18;2.85;;;12.70;99.10;;;;;;5018941;28;20060;-84
2022/03/19 11:23:06;;;;;;;4.00;1.90;;;12.40;99.90;;;;;;5032352;28;20053;-85
2022/03/19 11:25:44;;;;;;;7.40;2.42;;;12.70;99.90;;;;;;5046874;28;20393;-84
2022/03/19 11:28:10;;;;;;;9.63;2.80;;;12.40;99.50;;;;;;5037009;28;20511;-86
2022/03/19 11:30:46;;;;;;;6.30;2.42;;;12.50;99.90;;;;;;5053463;28;20481;-85
2022/03/19 11:33:15;;;;;;;2.70;1.77;;;12.40;99.90;;;;;;5040456;28;20053;-86
2022/03/19 11:35:47;;;;;;;10.20;2.42;;;12.50;99.30;;;;;;5042777;28;20028;-86
2022/03/19 11:38:20;;;;;;;12.10;2.58;;;12.30;99.00;;;;;;5052049;28;20107;-84
2022/03/19 11:40:54;;;;;;;6.30;2.88;;;12.20;99.20;;;;;;5019645;28;20045;-85
2022/03/19 11:43:35;;;;;;;4.53;2.05;;;12.00;99.70;;;;;;5060278;28;20028;-86
2022/03/19 11:46:03;;;;;;;3.40;1.98;;;12.20;99.00;;;;;;5052000;28;20047;-86
2022/03/19 11:48:35;;;;;;;7.70;2.67;;;12.40;97.60;;;;;;5031498;28;20037;-86
2022/03/19 11:51:25;;;;;;;2.80;1.45;;;12.40;97.30;;;;;;5033263;28;20037;-86
2022/03/19 11:53:53;;;;;;;3.80;1.80;;;11.90;98.50;;;;;;5048502;28;20071;-86
2022/03/19 11:56:22;;;;;;;3.95;1.77;;;12.40;98.40;;;;;;5036145;28;20496;-86
2022/03/19 11:58:49;;;;;;;5.70;2.10;;;12.30;97.40;;;;;;5032502;28;20041;-86
2022/03/19 12:01:15;;;;;;;4.30;1.65;;;12.40;97.70;;;;;;5033301;28;20046;-86
2022/03/19 12:04:10;;;;;;;5.85;1.90;;;12.60;98.30;;;;;;5014001;28;20071;-85
2022/03/19 12:06:40;;;;;;;;;;;12.70;98.80;;;;;;5023889;28;20037;-86
2022/03/19 12:09:07;;;;;;;2.63;1.63;;;12.80;99.90;;;;;;5031121;28;19931;-86
2022/03/19 12:11:35;;;;;;;26.02;4.80;;;12.70;99.10;;;;;;5038310;28;20306;-84
2022/03/19 12:14:04;;;;;;;32.45;4.93;;;12.60;99.90;;;;;;5038000;28;20036;-86
2022/03/19 12:16:43;;;;;;;10.73;1.95;;;12.70;99.90;;;;;;5025618;28;20416;-86
2022/03/19 12:19:09;;;;;;;3.13;1.58;;;13.00;97.50;;;;;;5015416;28;20555;-86
2022/03/19 12:21:37;;;;;;;3.65;1.70;;;12.90;95.50;;;;;;5019095;28;20056;-86
2022/03/19 12:24:06;;;;;;;5.95;2.42;;;12.70;94.80;;;;;;5018390;28;20088;-85
2022/03/19 12:26:43;;;;;;;5.75;2.03;;;12.50;96.60;;;;;;5032526;28;20482;-85
2022/03/19 12:29:10;;;;;;;5.88;1.38;;;12.70;97.60;;;;;;5051559;28;20055;-86
2022/03/19 12:31:48;;;;;;;4.55;1.60;;;13.00;95.50;;;;;;5035524;28;20049;-84
2022/03/19 12:34:19;;;;;;;3.85;1.33;;;12.80;95.00;;;;;;5018540;28;20045;-85
2022/03/19 12:36:46;;;;;;;4.53;1.98;;;12.80;95.00;;;;;;5032442;28;20045;-85
2022/03/19 12:39:12;;;;;;;4.03;1.40;;;12.80;94.70;;;;;;5016170;28;20071;-84
2022/03/19 12:41:38;;;;;;;4.20;1.73;;;12.50;94.40;;;;;;5051364;28;20040;-85
2022/03/19 12:44:16;;;;;;;3.88;1.70;;;12.70;92.40;;;;;;5048776;28;20064;-84
2022/03/19 12:46:42;;;;;;;3.78;1.20;;;12.60;94.60;;;;;;5015499;28;20053;-86
2022/03/19 12:49:10;;;;;;;6.15;1.90;;;12.80;95.00;;;;;;5035955;28;20131;-85
2022/03/19 12:51:42;;;;;;;4.65;1.85;;;12.90;94.10;;;;;;5035393;28;20049;-85
2022/03/19 12:54:21;;;;;;;6.22;1.95;;;12.80;95.60;;;;;;5051227;28;20037;-85
2022/03/19 12:56:48;;;;;;;3.95;1.58;;;12.70;93.90;;;;;;5033802;28;20049;-87
2022/03/19 12:59:21;;;;;;;6.07;1.70;;;13.00;93.90;;;;;;5012491;28;20061;-85